sensor_id;sensor_type;location;lat;lon;timestamp;P1;durP1;ratioP1;P2;durP2;ratioP2
72864;SDS011;61000;48.120;11.548;2024-03-02T00:00:49;13.57;;;10.27;;
72864;SDS011;61000;48.120;11.548;2024-03-02T00:03:16;15.40;;;11.27;;
72864;SDS011;61000;48.120;11.548;2024-03-02T00:05:43;16.52;;;11.30;;
72864;SDS011;61000;48.120;11.548;2024-03-02T00:08:16;13.45;;;10.90;;
72864;SDS011;61000;48.120;11.548;2024-03-02T00:10:49;14.23;;;11.20;;
72864;SDS011;61000;48.120;11.548;2024-03-02T00:13:16;14.27;;;10.98;;
72864;SDS011;61000;48.120;11.548;2024-03-02T00:15:45;17.50;;;11.90;;
72864;SDS011;61000;48.120;11.548;2024-03-02T00:18:16;15.60;;;11.27;;
72864;SDS011;61000;48.120;11.548;2024-03-02T00:20:45;17.75;;;11.93;;
72864;SDS011;61000;48.120;11.548;2024-03-02T00:23:16;13.90;;;10.27;;
72864;SDS011;61000;48.120;11.548;2024-03-02T00:25:45;16.20;;;11.70;;
72864;SDS011;61000;48.120;11.548;2024-03-02T00:28:16;15.13;;;12.10;;
72864;SDS011;61000;48.120;11.548;2024-03-02T00:33:30;14.65;;;11.38;;
72864;SDS011;61000;48.120;11.548;2024-03-02T00:35:58;16.30;;;11.40;;
72864;SDS011;61000;48.120;11.548;2024-03-02T00:38:27;13.38;;;10.30;;
72864;SDS011;61000;48.120;11.548;2024-03-02T00:40:55;15.18;;;10.90;;
72864;SDS011;61000;48.120;11.548;2024-03-02T00:43:37;17.45;;;11.98;;
72864;SDS011;61000;48.120;11.548;2024-03-02T00:46:07;15.18;;;10.40;;
72864;SDS011;61000;48.120;11.548;2024-03-02T00:48:34;14.70;;;11.02;;
72864;SDS011;61000;48.120;11.548;2024-03-02T00:51:02;15.50;;;10.88;;
72864;SDS011;61000;48.120;11.548;2024-03-02T00:53:31;16.40;;;11.32;;
72864;SDS011;61000;48.120;11.548;2024-03-02T00:55:58;17.42;;;12.32;;
72864;SDS011;61000;48.120;11.548;2024-03-02T00:58:27;14.07;;;10.70;;
72864;SDS011;61000;48.120;11.548;2024-03-02T01:00:53;14.75;;;10.55;;
72864;SDS011;61000;48.120;11.548;2024-03-02T01:03:20;16.15;;;11.15;;
72864;SDS011;61000;48.120;11.548;2024-03-02T01:05:47;15.98;;;13.13;;
72864;SDS011;61000;48.120;11.548;2024-03-02T01:08:14;15.63;;;11.60;;
72864;SDS011;61000;48.120;11.548;2024-03-02T01:10:42;14.65;;;11.02;;
72864;SDS011;61000;48.120;11.548;2024-03-02T01:13:09;14.52;;;11.10;;
72864;SDS011;61000;48.120;11.548;2024-03-02T01:15:36;14.48;;;10.82;;
72864;SDS011;61000;48.120;11.548;2024-03-02T01:18:03;15.18;;;11.30;;
72864;SDS011;61000;48.120;11.548;2024-03-02T01:20:31;15.55;;;11.45;;
72864;SDS011;61000;48.120;11.548;2024-03-02T01:22:58;14.93;;;11.55;;
72864;SDS011;61000;48.120;11.548;2024-03-02T01:25:25;16.88;;;11.23;;
72864;SDS011;61000;48.120;11.548;2024-03-02T01:27:53;16.67;;;11.45;;
72864;SDS011;61000;48.120;11.548;2024-03-02T01:30:20;18.17;;;10.35;;
72864;SDS011;61000;48.120;11.548;2024-03-02T01:32:47;17.35;;;11.40;;
72864;SDS011;61000;48.120;11.548;2024-03-02T01:35:14;13.23;;;10.23;;
72864;SDS011;61000;48.120;11.548;2024-03-02T01:37:41;12.50;;;9.70;;
72864;SDS011;61000;48.120;11.548;2024-03-02T01:40:08;14.50;;;10.13;;
72864;SDS011;61000;48.120;11.548;2024-03-02T01:42:36;12.38;;;9.68;;
72864;SDS011;61000;48.120;11.548;2024-03-02T01:45:05;15.65;;;10.55;;
72864;SDS011;61000;48.120;11.548;2024-03-02T01:47:33;15.45;;;11.00;;
72864;SDS011;61000;48.120;11.548;2024-03-02T01:50:00;12.30;;;9.65;;
72864;SDS011;61000;48.120;11.548;2024-03-02T01:52:27;11.63;;;8.93;;
72864;SDS011;61000;48.120;11.548;2024-03-02T01:54:54;14.75;;;9.98;;
72864;SDS011;61000;48.120;11.548;2024-03-02T01:57:22;14.95;;;10.07;;
72864;SDS011;61000;48.120;11.548;2024-03-02T01:59:49;13.15;;;10.50;;
72864;SDS011;61000;48.120;11.548;2024-03-02T02:02:18;12.73;;;10.05;;
72864;SDS011;61000;48.120;11.548;2024-03-02T02:04:45;16.30;;;10.68;;
72864;SDS011;61000;48.120;11.548;2024-03-02T02:07:12;13.82;;;9.90;;
72864;SDS011;61000;48.120;11.548;2024-03-02T02:09:40;14.23;;;10.02;;
72864;SDS011;61000;48.120;11.548;2024-03-02T02:12:07;14.48;;;10.57;;
72864;SDS011;61000;48.120;11.548;2024-03-02T02:14:35;14.57;;;10.18;;
72864;SDS011;61000;48.120;11.548;2024-03-02T02:17:02;12.38;;;9.80;;
72864;SDS011;61000;48.120;11.548;2024-03-02T02:19:30;14.35;;;10.10;;
72864;SDS011;61000;48.120;11.548;2024-03-02T02:21:59;13.52;;;9.65;;
72864;SDS011;61000;48.120;11.548;2024-03-02T02:24:25;12.35;;;9.90;;
72864;SDS011;61000;48.120;11.548;2024-03-02T02:26:52;13.35;;;10.13;;
72864;SDS011;61000;48.120;11.548;2024-03-02T02:29:19;14.55;;;10.10;;
72864;SDS011;61000;48.120;11.548;2024-03-02T02:31:46;14.48;;;9.40;;
72864;SDS011;61000;48.120;11.548;2024-03-02T02:34:13;15.20;;;10.30;;
72864;SDS011;61000;48.120;11.548;2024-03-02T02:36:41;12.05;;;9.90;;
72864;SDS011;61000;48.120;11.548;2024-03-02T02:39:11;13.20;;;9.85;;
72864;SDS011;61000;48.120;11.548;2024-03-02T02:41:42;14.82;;;10.68;;
72864;SDS011;61000;48.120;11.548;2024-03-02T02:44:09;16.65;;;9.75;;
72864;SDS011;61000;48.120;11.548;2024-03-02T02:46:37;14.15;;;10.25;;
72864;SDS011;61000;48.120;11.548;2024-03-02T02:49:04;15.35;;;10.07;;
72864;SDS011;61000;48.120;11.548;2024-03-02T02:51:31;20.75;;;10.40;;
72864;SDS011;61000;48.120;11.548;2024-03-02T02:53:58;14.80;;;10.07;;
72864;SDS011;61000;48.120;11.548;2024-03-02T02:56:27;14.68;;;11.43;;
72864;SDS011;61000;48.120;11.548;2024-03-02T02:58:53;17.02;;;11.95;;
72864;SDS011;61000;48.120;11.548;2024-03-02T03:01:20;15.27;;;10.80;;
72864;SDS011;61000;48.120;11.548;2024-03-02T03:03:47;13.80;;;10.30;;
72864;SDS011;61000;48.120;11.548;2024-03-02T03:06:14;15.35;;;9.93;;
72864;SDS011;61000;48.120;11.548;2024-03-02T03:08:41;14.50;;;11.50;;
72864;SDS011;61000;48.120;11.548;2024-03-02T03:11:08;16.25;;;10.45;;
72864;SDS011;61000;48.120;11.548;2024-03-02T03:13:36;17.88;;;12.05;;
72864;SDS011;61000;48.120;11.548;2024-03-02T03:16:03;17.48;;;12.45;;
72864;SDS011;61000;48.120;11.548;2024-03-02T03:18:31;17.75;;;12.50;;
72864;SDS011;61000;48.120;11.548;2024-03-02T03:20:57;17.17;;;12.65;;
72864;SDS011;61000;48.120;11.548;2024-03-02T03:23:24;17.45;;;12.50;;
72864;SDS011;61000;48.120;11.548;2024-03-02T03:25:51;21.73;;;13.18;;
72864;SDS011;61000;48.120;11.548;2024-03-02T03:28:18;20.20;;;13.02;;
72864;SDS011;61000;48.120;11.548;2024-03-02T03:30:46;23.63;;;14.45;;
72864;SDS011;61000;48.120;11.548;2024-03-02T03:33:13;18.98;;;13.82;;
72864;SDS011;61000;48.120;11.548;2024-03-02T03:35:40;21.27;;;13.65;;
72864;SDS011;61000;48.120;11.548;2024-03-02T03:38:07;19.40;;;13.43;;
72864;SDS011;61000;48.120;11.548;2024-03-02T03:40:34;21.70;;;14.23;;
72864;SDS011;61000;48.120;11.548;2024-03-02T03:43:01;22.17;;;13.95;;
72864;SDS011;61000;48.120;11.548;2024-03-02T03:45:28;22.08;;;12.55;;
72864;SDS011;61000;48.120;11.548;2024-03-02T03:47:57;21.05;;;14.25;;
72864;SDS011;61000;48.120;11.548;2024-03-02T03:50:23;18.92;;;12.63;;
72864;SDS011;61000;48.120;11.548;2024-03-02T03:52:51;17.95;;;13.45;;
72864;SDS011;61000;48.120;11.548;2024-03-02T03:55:17;21.05;;;14.43;;
72864;SDS011;61000;48.120;11.548;2024-03-02T03:57:44;18.63;;;12.90;;
72864;SDS011;61000;48.120;11.548;2024-03-02T04:00:11;18.83;;;13.40;;
72864;SDS011;61000;48.120;11.548;2024-03-02T04:02:39;19.27;;;12.77;;
72864;SDS011;61000;48.120;11.548;2024-03-02T04:05:07;19.42;;;13.23;;
72864;SDS011;61000;48.120;11.548;2024-03-02T04:07:36;19.00;;;12.63;;
72864;SDS011;61000;48.120;11.548;2024-03-02T04:10:06;19.50;;;13.18;;
72864;SDS011;61000;48.120;11.548;2024-03-02T04:12:34;17.83;;;13.25;;
72864;SDS011;61000;48.120;11.548;2024-03-02T04:15:02;21.17;;;13.38;;
72864;SDS011;61000;48.120;11.548;2024-03-02T04:17:31;19.98;;;13.25;;
72864;SDS011;61000;48.120;11.548;2024-03-02T04:19:58;21.85;;;13.30;;
72864;SDS011;61000;48.120;11.548;2024-03-02T04:22:27;18.33;;;12.77;;
72864;SDS011;61000;48.120;11.548;2024-03-02T04:24:54;18.65;;;13.90;;
72864;SDS011;61000;48.120;11.548;2024-03-02T04:27:21;19.33;;;12.43;;
72864;SDS011;61000;48.120;11.548;2024-03-02T04:29:48;19.92;;;14.15;;
72864;SDS011;61000;48.120;11.548;2024-03-02T04:32:15;21.52;;;13.00;;
72864;SDS011;61000;48.120;11.548;2024-03-02T04:34:42;20.75;;;13.98;;
72864;SDS011;61000;48.120;11.548;2024-03-02T04:37:10;21.13;;;13.80;;
72864;SDS011;61000;48.120;11.548;2024-03-02T04:39:40;18.95;;;14.20;;
72864;SDS011;61000;48.120;11.548;2024-03-02T04:42:07;21.83;;;14.20;;
72864;SDS011;61000;48.120;11.548;2024-03-02T04:44:34;20.77;;;13.60;;
72864;SDS011;61000;48.120;11.548;2024-03-02T04:47:02;20.00;;;13.75;;
72864;SDS011;61000;48.120;11.548;2024-03-02T04:49:29;19.48;;;12.88;;
72864;SDS011;61000;48.120;11.548;2024-03-02T04:51:56;18.95;;;13.63;;
72864;SDS011;61000;48.120;11.548;2024-03-02T04:54:23;16.88;;;12.63;;
72864;SDS011;61000;48.120;11.548;2024-03-02T04:56:51;19.15;;;13.93;;
72864;SDS011;61000;48.120;11.548;2024-03-02T04:59:18;17.92;;;13.10;;
72864;SDS011;61000;48.120;11.548;2024-03-02T05:01:46;18.30;;;13.05;;
72864;SDS011;61000;48.120;11.548;2024-03-02T05:04:13;19.90;;;13.57;;
72864;SDS011;61000;48.120;11.548;2024-03-02T05:06:40;18.23;;;13.93;;
72864;SDS011;61000;48.120;11.548;2024-03-02T05:09:07;21.23;;;14.93;;
72864;SDS011;61000;48.120;11.548;2024-03-02T05:11:35;19.88;;;14.20;;
72864;SDS011;61000;48.120;11.548;2024-03-02T05:14:38;22.00;;;15.70;;
72864;SDS011;61000;48.120;11.548;2024-03-02T05:17:04;21.58;;;14.30;;
72864;SDS011;61000;48.120;11.548;2024-03-02T05:19:31;20.15;;;13.82;;
72864;SDS011;61000;48.120;11.548;2024-03-02T05:21:57;20.77;;;14.30;;
72864;SDS011;61000;48.120;11.548;2024-03-02T05:24:24;19.00;;;13.35;;
72864;SDS011;61000;48.120;11.548;2024-03-02T05:26:53;21.02;;;14.10;;
72864;SDS011;61000;48.120;11.548;2024-03-02T05:29:20;23.13;;;14.10;;
72864;SDS011;61000;48.120;11.548;2024-03-02T05:31:48;23.10;;;14.32;;
72864;SDS011;61000;48.120;11.548;2024-03-02T05:34:15;18.42;;;13.82;;
72864;SDS011;61000;48.120;11.548;2024-03-02T05:36:43;22.17;;;14.88;;
72864;SDS011;61000;48.120;11.548;2024-03-02T05:39:10;20.00;;;13.98;;
72864;SDS011;61000;48.120;11.548;2024-03-02T05:41:37;18.58;;;13.63;;
72864;SDS011;61000;48.120;11.548;2024-03-02T05:44:04;21.02;;;14.02;;
72864;SDS011;61000;48.120;11.548;2024-03-02T05:46:31;21.02;;;14.80;;
72864;SDS011;61000;48.120;11.548;2024-03-02T05:48:59;22.73;;;14.98;;
72864;SDS011;61000;48.120;11.548;2024-03-02T05:51:26;21.08;;;15.10;;
72864;SDS011;61000;48.120;11.548;2024-03-02T05:53:53;22.23;;;14.52;;
72864;SDS011;61000;48.120;11.548;2024-03-02T05:56:20;21.63;;;14.90;;
72864;SDS011;61000;48.120;11.548;2024-03-02T05:58:47;22.20;;;15.02;;
72864;SDS011;61000;48.120;11.548;2024-03-02T06:01:26;21.83;;;14.60;;
72864;SDS011;61000;48.120;11.548;2024-03-02T06:03:54;20.90;;;14.85;;
72864;SDS011;61000;48.120;11.548;2024-03-02T06:06:23;20.70;;;14.45;;
72864;SDS011;61000;48.120;11.548;2024-03-02T06:08:50;20.67;;;14.82;;
72864;SDS011;61000;48.120;11.548;2024-03-02T06:11:17;24.27;;;15.15;;
72864;SDS011;61000;48.120;11.548;2024-03-02T06:13:46;22.35;;;13.85;;
72864;SDS011;61000;48.120;11.548;2024-03-02T06:16:13;25.05;;;16.88;;
72864;SDS011;61000;48.120;11.548;2024-03-02T06:18:39;24.15;;;15.65;;
72864;SDS011;61000;48.120;11.548;2024-03-02T06:21:06;23.02;;;17.10;;
72864;SDS011;61000;48.120;11.548;2024-03-02T06:23:34;21.98;;;16.15;;
72864;SDS011;61000;48.120;11.548;2024-03-02T06:26:01;24.23;;;16.90;;
72864;SDS011;61000;48.120;11.548;2024-03-02T06:28:28;25.02;;;16.38;;
72864;SDS011;61000;48.120;11.548;2024-03-02T06:30:55;24.90;;;16.40;;
72864;SDS011;61000;48.120;11.548;2024-03-02T06:33:22;22.77;;;16.02;;
72864;SDS011;61000;48.120;11.548;2024-03-02T06:35:49;22.17;;;15.32;;
72864;SDS011;61000;48.120;11.548;2024-03-02T06:38:16;25.20;;;16.98;;
72864;SDS011;61000;48.120;11.548;2024-03-02T06:40:44;28.90;;;17.85;;
72864;SDS011;61000;48.120;11.548;2024-03-02T06:43:11;24.63;;;15.75;;
72864;SDS011;61000;48.120;11.548;2024-03-02T06:45:38;23.00;;;16.27;;
72864;SDS011;61000;48.120;11.548;2024-03-02T06:48:05;21.50;;;15.68;;
72864;SDS011;61000;48.120;11.548;2024-03-02T06:50:33;26.02;;;16.55;;
72864;SDS011;61000;48.120;11.548;2024-03-02T06:52:59;25.05;;;16.73;;
72864;SDS011;61000;48.120;11.548;2024-03-02T06:55:29;24.90;;;15.77;;
72864;SDS011;61000;48.120;11.548;2024-03-02T06:57:57;24.05;;;16.05;;
72864;SDS011;61000;48.120;11.548;2024-03-02T07:00:24;24.25;;;15.77;;
72864;SDS011;61000;48.120;11.548;2024-03-02T07:02:51;25.27;;;16.70;;
72864;SDS011;61000;48.120;11.548;2024-03-02T07:05:18;30.63;;;17.40;;
72864;SDS011;61000;48.120;11.548;2024-03-02T07:07:46;22.35;;;15.75;;
72864;SDS011;61000;48.120;11.548;2024-03-02T07:10:13;24.17;;;16.95;;
72864;SDS011;61000;48.120;11.548;2024-03-02T07:12:40;26.30;;;16.17;;
72864;SDS011;61000;48.120;11.548;2024-03-02T07:15:09;24.75;;;17.15;;
72864;SDS011;61000;48.120;11.548;2024-03-02T07:18:02;25.95;;;16.27;;
72864;SDS011;61000;48.120;11.548;2024-03-02T07:20:29;30.63;;;17.85;;
72864;SDS011;61000;48.120;11.548;2024-03-02T07:22:56;27.60;;;17.38;;
72864;SDS011;61000;48.120;11.548;2024-03-02T07:25:23;26.70;;;17.27;;
72864;SDS011;61000;48.120;11.548;2024-03-02T07:27:50;24.83;;;16.98;;
72864;SDS011;61000;48.120;11.548;2024-03-02T07:30:19;28.42;;;17.42;;
72864;SDS011;61000;48.120;11.548;2024-03-02T07:32:46;27.90;;;17.92;;
72864;SDS011;61000;48.120;11.548;2024-03-02T07:35:16;26.42;;;17.25;;
72864;SDS011;61000;48.120;11.548;2024-03-02T07:37:43;27.55;;;18.45;;
72864;SDS011;61000;48.120;11.548;2024-03-02T07:40:10;26.70;;;16.25;;
72864;SDS011;61000;48.120;11.548;2024-03-02T07:42:38;26.60;;;16.50;;
72864;SDS011;61000;48.120;11.548;2024-03-02T07:45:06;26.27;;;16.45;;
72864;SDS011;61000;48.120;11.548;2024-03-02T07:47:34;25.38;;;17.02;;
72864;SDS011;61000;48.120;11.548;2024-03-02T07:50:01;26.95;;;17.10;;
72864;SDS011;61000;48.120;11.548;2024-03-02T07:52:31;25.55;;;16.33;;
72864;SDS011;61000;48.120;11.548;2024-03-02T07:54:58;24.52;;;15.70;;
72864;SDS011;61000;48.120;11.548;2024-03-02T07:57:25;25.33;;;16.30;;
72864;SDS011;61000;48.120;11.548;2024-03-02T07:59:52;23.52;;;16.25;;
72864;SDS011;61000;48.120;11.548;2024-03-02T08:02:19;25.77;;;16.05;;
72864;SDS011;61000;48.120;11.548;2024-03-02T08:04:48;22.63;;;14.75;;
72864;SDS011;61000;48.120;11.548;2024-03-02T08:07:15;25.40;;;15.32;;
72864;SDS011;61000;48.120;11.548;2024-03-02T08:09:42;22.40;;;15.23;;
72864;SDS011;61000;48.120;11.548;2024-03-02T08:12:09;23.63;;;14.82;;
72864;SDS011;61000;48.120;11.548;2024-03-02T08:14:36;24.20;;;15.18;;
72864;SDS011;61000;48.120;11.548;2024-03-02T08:17:03;24.50;;;15.25;;
72864;SDS011;61000;48.120;11.548;2024-03-02T08:19:34;23.75;;;15.05;;
72864;SDS011;61000;48.120;11.548;2024-03-02T08:22:03;21.77;;;14.30;;
72864;SDS011;61000;48.120;11.548;2024-03-02T08:24:30;22.25;;;14.27;;
72864;SDS011;61000;48.120;11.548;2024-03-02T08:26:58;18.63;;;12.63;;
72864;SDS011;61000;48.120;11.548;2024-03-02T08:29:25;18.80;;;13.48;;
72864;SDS011;61000;48.120;11.548;2024-03-02T08:31:52;21.48;;;12.98;;
72864;SDS011;61000;48.120;11.548;2024-03-02T08:34:19;19.67;;;13.82;;
72864;SDS011;61000;48.120;11.548;2024-03-02T08:36:46;21.15;;;13.48;;
72864;SDS011;61000;48.120;11.548;2024-03-02T08:39:14;19.27;;;12.90;;
72864;SDS011;61000;48.120;11.548;2024-03-02T08:41:41;20.90;;;14.27;;
72864;SDS011;61000;48.120;11.548;2024-03-02T08:44:09;17.15;;;12.00;;
72864;SDS011;61000;48.120;11.548;2024-03-02T08:46:36;16.00;;;11.85;;
72864;SDS011;61000;48.120;11.548;2024-03-02T08:49:03;19.20;;;12.40;;
72864;SDS011;61000;48.120;11.548;2024-03-02T08:51:30;17.77;;;12.20;;
72864;SDS011;61000;48.120;11.548;2024-03-02T08:53:57;17.52;;;12.63;;
72864;SDS011;61000;48.120;11.548;2024-03-02T08:56:25;13.80;;;10.88;;
72864;SDS011;61000;48.120;11.548;2024-03-02T08:58:52;16.02;;;11.23;;
72864;SDS011;61000;48.120;11.548;2024-03-02T09:01:19;15.77;;;10.40;;
72864;SDS011;61000;48.120;11.548;2024-03-02T09:03:46;13.60;;;9.85;;
72864;SDS011;61000;48.120;11.548;2024-03-02T09:06:14;18.15;;;12.00;;
72864;SDS011;61000;48.120;11.548;2024-03-02T09:08:42;14.93;;;10.70;;
72864;SDS011;61000;48.120;11.548;2024-03-02T09:11:09;13.80;;;9.80;;
72864;SDS011;61000;48.120;11.548;2024-03-02T09:13:39;15.70;;;10.98;;
72864;SDS011;61000;48.120;11.548;2024-03-02T09:16:06;14.55;;;10.07;;
72864;SDS011;61000;48.120;11.548;2024-03-02T09:18:36;14.88;;;10.50;;
72864;SDS011;61000;48.120;11.548;2024-03-02T09:21:03;14.90;;;11.02;;
72864;SDS011;61000;48.120;11.548;2024-03-02T09:23:30;13.95;;;10.88;;
72864;SDS011;61000;48.120;11.548;2024-03-02T09:25:57;13.18;;;10.55;;
72864;SDS011;61000;48.120;11.548;2024-03-02T09:28:24;14.07;;;11.40;;
72864;SDS011;61000;48.120;11.548;2024-03-02T09:30:52;13.95;;;10.68;;
72864;SDS011;61000;48.120;11.548;2024-03-02T09:33:19;12.65;;;11.00;;
72864;SDS011;61000;48.120;11.548;2024-03-02T09:35:46;11.38;;;9.95;;
72864;SDS011;61000;48.120;11.548;2024-03-02T09:38:13;11.60;;;10.00;;
72864;SDS011;61000;48.120;11.548;2024-03-02T09:40:41;11.30;;;9.57;;
72864;SDS011;61000;48.120;11.548;2024-03-02T09:43:08;10.57;;;9.48;;
72864;SDS011;61000;48.120;11.548;2024-03-02T09:45:35;12.30;;;9.57;;
72864;SDS011;61000;48.120;11.548;2024-03-02T09:48:04;11.63;;;9.15;;
72864;SDS011;61000;48.120;11.548;2024-03-02T09:50:32;7.72;;;6.57;;
72864;SDS011;61000;48.120;11.548;2024-03-02T09:52:59;9.43;;;7.97;;
72864;SDS011;61000;48.120;11.548;2024-03-02T09:55:26;10.23;;;6.70;;
72864;SDS011;61000;48.120;11.548;2024-03-02T09:57:53;9.57;;;7.70;;
72864;SDS011;61000;48.120;11.548;2024-03-02T10:00:21;12.10;;;7.85;;
72864;SDS011;61000;48.120;11.548;2024-03-02T10:02:48;10.32;;;7.88;;
72864;SDS011;61000;48.120;11.548;2024-03-02T10:05:24;8.52;;;7.35;;
72864;SDS011;61000;48.120;11.548;2024-03-02T10:07:58;8.55;;;7.10;;
72864;SDS011;61000;48.120;11.548;2024-03-02T10:10:34;8.13;;;6.63;;
72864;SDS011;61000;48.120;11.548;2024-03-02T10:13:05;7.10;;;6.40;;
72864;SDS011;61000;48.120;11.548;2024-03-02T10:15:33;6.75;;;6.00;;
72864;SDS011;61000;48.120;11.548;2024-03-02T10:18:02;7.43;;;6.13;;
72864;SDS011;61000;48.120;11.548;2024-03-02T10:20:30;8.27;;;6.25;;
72864;SDS011;61000;48.120;11.548;2024-03-02T10:23:09;8.45;;;6.50;;
72864;SDS011;61000;48.120;11.548;2024-03-02T10:25:36;6.65;;;5.95;;
72864;SDS011;61000;48.120;11.548;2024-03-02T10:28:03;6.65;;;5.32;;
72864;SDS011;61000;48.120;11.548;2024-03-02T10:30:31;6.55;;;5.60;;
72864;SDS011;61000;48.120;11.548;2024-03-02T10:32:59;6.68;;;5.97;;
72864;SDS011;61000;48.120;11.548;2024-03-02T10:35:28;7.82;;;6.35;;
72864;SDS011;61000;48.120;11.548;2024-03-02T10:37:57;8.05;;;5.88;;
72864;SDS011;61000;48.120;11.548;2024-03-02T10:40:25;8.80;;;6.97;;
72864;SDS011;61000;48.120;11.548;2024-03-02T10:42:53;6.10;;;4.93;;
72864;SDS011;61000;48.120;11.548;2024-03-02T10:45:20;7.47;;;6.10;;
72864;SDS011;61000;48.120;11.548;2024-03-02T10:47:48;7.35;;;5.40;;
72864;SDS011;61000;48.120;11.548;2024-03-02T10:50:16;8.48;;;5.80;;
72864;SDS011;61000;48.120;11.548;2024-03-02T10:52:44;8.80;;;5.82;;
72864;SDS011;61000;48.120;11.548;2024-03-02T10:55:12;9.07;;;5.90;;
72864;SDS011;61000;48.120;11.548;2024-03-02T10:57:45;9.35;;;5.57;;
72864;SDS011;61000;48.120;11.548;2024-03-02T11:00:18;9.00;;;5.95;;
72864;SDS011;61000;48.120;11.548;2024-03-02T11:02:50;7.50;;;5.53;;
72864;SDS011;61000;48.120;11.548;2024-03-02T11:05:24;7.75;;;5.82;;
72864;SDS011;61000;48.120;11.548;2024-03-02T11:07:56;9.63;;;6.80;;
72864;SDS011;61000;48.120;11.548;2024-03-02T11:10:28;7.57;;;5.90;;
72864;SDS011;61000;48.120;11.548;2024-03-02T11:13:00;10.70;;;7.53;;
72864;SDS011;61000;48.120;11.548;2024-03-02T11:15:29;12.65;;;8.60;;
72864;SDS011;61000;48.120;11.548;2024-03-02T11:17:57;11.18;;;8.25;;
72864;SDS011;61000;48.120;11.548;2024-03-02T11:20:25;14.68;;;9.43;;
72864;SDS011;61000;48.120;11.548;2024-03-02T11:22:53;14.27;;;9.65;;
72864;SDS011;61000;48.120;11.548;2024-03-02T11:25:23;12.63;;;9.27;;
72864;SDS011;61000;48.120;11.548;2024-03-02T11:28:02;12.13;;;8.93;;
72864;SDS011;61000;48.120;11.548;2024-03-02T11:33:24;15.10;;;10.07;;
72864;SDS011;61000;48.120;11.548;2024-03-02T11:35:56;18.25;;;11.13;;
72864;SDS011;61000;48.120;11.548;2024-03-02T11:38:27;17.10;;;10.98;;
72864;SDS011;61000;48.120;11.548;2024-03-02T11:40:56;17.08;;;11.32;;
72864;SDS011;61000;48.120;11.548;2024-03-02T11:43:24;14.70;;;9.98;;
72864;SDS011;61000;48.120;11.548;2024-03-02T11:45:56;17.13;;;9.90;;
72864;SDS011;61000;48.120;11.548;2024-03-02T11:48:24;16.08;;;9.80;;
72864;SDS011;61000;48.120;11.548;2024-03-02T11:50:51;17.02;;;10.00;;
72864;SDS011;61000;48.120;11.548;2024-03-02T11:53:19;14.77;;;9.15;;
72864;SDS011;61000;48.120;11.548;2024-03-02T11:55:46;16.23;;;9.35;;
72864;SDS011;61000;48.120;11.548;2024-03-02T11:58:15;14.05;;;8.73;;
72864;SDS011;61000;48.120;11.548;2024-03-02T12:00:47;11.82;;;8.18;;
72864;SDS011;61000;48.120;11.548;2024-03-02T12:03:16;11.30;;;7.85;;
72864;SDS011;61000;48.120;11.548;2024-03-02T12:05:43;15.10;;;8.85;;
72864;SDS011;61000;48.120;11.548;2024-03-02T12:08:11;13.10;;;8.65;;
72864;SDS011;61000;48.120;11.548;2024-03-02T12:10:39;10.60;;;7.50;;
72864;SDS011;61000;48.120;11.548;2024-03-02T12:13:06;11.60;;;7.22;;
72864;SDS011;61000;48.120;11.548;2024-03-02T12:15:36;10.32;;;7.22;;
72864;SDS011;61000;48.120;11.548;2024-03-02T12:18:05;12.02;;;7.55;;
72864;SDS011;61000;48.120;11.548;2024-03-02T12:20:32;13.15;;;7.40;;
72864;SDS011;61000;48.120;11.548;2024-03-02T12:23:00;12.07;;;7.57;;
72864;SDS011;61000;48.120;11.548;2024-03-02T12:25:28;11.32;;;7.95;;
72864;SDS011;61000;48.120;11.548;2024-03-02T12:27:59;16.05;;;8.70;;
72864;SDS011;61000;48.120;11.548;2024-03-02T12:30:27;14.20;;;8.45;;
72864;SDS011;61000;48.120;11.548;2024-03-02T12:32:57;17.77;;;9.68;;
72864;SDS011;61000;48.120;11.548;2024-03-02T12:35:26;15.75;;;9.85;;
72864;SDS011;61000;48.120;11.548;2024-03-02T12:37:53;14.23;;;9.02;;
72864;SDS011;61000;48.120;11.548;2024-03-02T12:40:21;13.45;;;8.80;;
72864;SDS011;61000;48.120;11.548;2024-03-02T12:42:48;17.00;;;9.88;;
72864;SDS011;61000;48.120;11.548;2024-03-02T12:45:15;16.58;;;9.65;;
72864;SDS011;61000;48.120;11.548;2024-03-02T12:47:48;17.38;;;10.48;;
72864;SDS011;61000;48.120;11.548;2024-03-02T12:50:16;18.50;;;9.38;;
72864;SDS011;61000;48.120;11.548;2024-03-02T12:52:45;13.85;;;9.25;;
72864;SDS011;61000;48.120;11.548;2024-03-02T12:55:18;15.43;;;10.63;;
72864;SDS011;61000;48.120;11.548;2024-03-02T12:57:47;19.15;;;11.27;;
72864;SDS011;61000;48.120;11.548;2024-03-02T13:00:17;18.23;;;12.52;;
72864;SDS011;61000;48.120;11.548;2024-03-02T13:02:45;19.45;;;12.07;;
72864;SDS011;61000;48.120;11.548;2024-03-02T13:05:13;17.77;;;11.10;;
72864;SDS011;61000;48.120;11.548;2024-03-02T13:07:40;15.60;;;10.45;;
72864;SDS011;61000;48.120;11.548;2024-03-02T13:10:09;13.43;;;8.30;;
72864;SDS011;61000;48.120;11.548;2024-03-02T13:12:36;13.90;;;8.38;;
72864;SDS011;61000;48.120;11.548;2024-03-02T13:15:04;13.07;;;8.55;;
72864;SDS011;61000;48.120;11.548;2024-03-02T13:17:31;11.85;;;8.30;;
72864;SDS011;61000;48.120;11.548;2024-03-02T13:20:01;15.40;;;10.05;;
72864;SDS011;61000;48.120;11.548;2024-03-02T13:22:33;20.38;;;12.27;;
72864;SDS011;61000;48.120;11.548;2024-03-02T13:25:00;17.42;;;11.15;;
72864;SDS011;61000;48.120;11.548;2024-03-02T13:27:30;16.40;;;11.80;;
72864;SDS011;61000;48.120;11.548;2024-03-02T13:29:57;20.58;;;13.80;;
72864;SDS011;61000;48.120;11.548;2024-03-02T13:32:24;20.33;;;12.90;;
72864;SDS011;61000;48.120;11.548;2024-03-02T13:34:51;19.92;;;12.60;;
72864;SDS011;61000;48.120;11.548;2024-03-02T13:37:18;20.75;;;13.38;;
72864;SDS011;61000;48.120;11.548;2024-03-02T13:39:46;20.15;;;12.77;;
72864;SDS011;61000;48.120;11.548;2024-03-02T13:42:12;20.02;;;13.27;;
72864;SDS011;61000;48.120;11.548;2024-03-02T13:44:41;18.52;;;12.32;;
72864;SDS011;61000;48.120;11.548;2024-03-02T13:47:10;15.93;;;9.00;;
72864;SDS011;61000;48.120;11.548;2024-03-02T13:49:37;14.27;;;9.23;;
72864;SDS011;61000;48.120;11.548;2024-03-02T13:52:08;14.45;;;9.30;;
72864;SDS011;61000;48.120;11.548;2024-03-02T13:54:38;16.17;;;10.88;;
72864;SDS011;61000;48.120;11.548;2024-03-02T13:57:05;19.83;;;12.20;;
72864;SDS011;61000;48.120;11.548;2024-03-02T13:59:32;17.15;;;11.07;;
72864;SDS011;61000;48.120;11.548;2024-03-02T14:02:02;20.70;;;11.60;;
72864;SDS011;61000;48.120;11.548;2024-03-02T14:04:30;19.30;;;12.75;;
72864;SDS011;61000;48.120;11.548;2024-03-02T14:06:58;16.35;;;11.32;;
72864;SDS011;61000;48.120;11.548;2024-03-02T14:09:25;18.15;;;12.23;;
72864;SDS011;61000;48.120;11.548;2024-03-02T14:11:52;15.80;;;10.00;;
72864;SDS011;61000;48.120;11.548;2024-03-02T14:14:20;16.30;;;10.43;;
72864;SDS011;61000;48.120;11.548;2024-03-02T14:16:47;17.40;;;9.13;;
72864;SDS011;61000;48.120;11.548;2024-03-02T14:19:15;15.55;;;9.90;;
72864;SDS011;61000;48.120;11.548;2024-03-02T14:21:42;11.77;;;8.63;;
72864;SDS011;61000;48.120;11.548;2024-03-02T14:24:09;12.10;;;8.45;;